sensor_id;sensor_type;location;lat;lon;timestamp;temperature;humidity
49829;DHT22;35723;51.194;5.112;2023-09-12T00:00:53;22.90;99.90
49829;DHT22;35723;51.194;5.112;2023-09-12T00:03:20;22.70;99.90
49829;DHT22;35723;51.194;5.112;2023-09-12T00:05:53;22.70;99.90
49829;DHT22;35723;51.194;5.112;2023-09-12T00:08:19;22.70;99.90
49829;DHT22;35723;51.194;5.112;2023-09-12T00:10:45;22.70;99.90
49829;DHT22;35723;51.194;5.112;2023-09-12T00:13:11;22.70;99.90
49829;DHT22;35723;51.194;5.112;2023-09-12T00:15:36;22.60;99.90
49829;DHT22;35723;51.194;5.112;2023-09-12T00:18:02;22.50;99.90
49829;DHT22;35723;51.194;5.112;2023-09-12T00:20:28;22.40;99.90
49829;DHT22;35723;51.194;5.112;2023-09-12T00:22:54;22.40;99.90
49829;DHT22;35723;51.194;5.112;2023-09-12T00:25:20;22.50;99.90
49829;DHT22;35723;51.194;5.112;2023-09-12T00:27:46;22.50;99.90
49829;DHT22;35723;51.194;5.112;2023-09-12T00:30:13;22.50;99.90
49829;DHT22;35723;51.194;5.112;2023-09-12T00:32:39;22.40;99.90
49829;DHT22;35723;51.194;5.112;2023-09-12T00:35:05;22.40;99.90
49829;DHT22;35723;51.194;5.112;2023-09-12T00:37:31;22.40;99.90
49829;DHT22;35723;51.194;5.112;2023-09-12T00:39:57;22.30;99.90
49829;DHT22;35723;51.194;5.112;2023-09-12T00:42:25;22.30;99.90
49829;DHT22;35723;51.194;5.112;2023-09-12T00:44:51;22.30;99.90
49829;DHT22;35723;51.194;5.112;2023-09-12T00:47:17;22.20;99.90
49829;DHT22;35723;51.194;5.112;2023-09-12T00:49:43;22.20;99.90
49829;DHT22;35723;51.194;5.112;2023-09-12T00:52:11;22.20;99.90
49829;DHT22;35723;51.194;5.112;2023-09-12T00:54:38;22.20;99.90
49829;DHT22;35723;51.194;5.112;2023-09-12T00:57:04;22.20;99.90
49829;DHT22;35723;51.194;5.112;2023-09-12T00:59:30;22.20;99.90
49829;DHT22;35723;51.194;5.112;2023-09-12T01:01:56;22.10;99.90
49829;DHT22;35723;51.194;5.112;2023-09-12T01:04:22;22.00;99.90
49829;DHT22;35723;51.194;5.112;2023-09-12T01:06:48;22.00;99.90
49829;DHT22;35723;51.194;5.112;2023-09-12T01:09:14;22.00;99.90
49829;DHT22;35723;51.194;5.112;2023-09-12T01:11:40;22.00;99.90
49829;DHT22;35723;51.194;5.112;2023-09-12T01:14:06;21.90;99.90
49829;DHT22;35723;51.194;5.112;2023-09-12T01:16:32;21.80;99.90
49829;DHT22;35723;51.194;5.112;2023-09-12T01:18:57;21.90;99.90
49829;DHT22;35723;51.194;5.112;2023-09-12T01:21:59;21.80;99.90
49829;DHT22;35723;51.194;5.112;2023-09-12T01:27:32;21.80;99.90
49829;DHT22;35723;51.194;5.112;2023-09-12T01:30:02;21.80;99.90
49829;DHT22;35723;51.194;5.112;2023-09-12T01:32:32;21.70;99.90
49829;DHT22;35723;51.194;5.112;2023-09-12T01:34:58;21.70;99.90
49829;DHT22;35723;51.194;5.112;2023-09-12T01:37:23;21.70;99.90
49829;DHT22;35723;51.194;5.112;2023-09-12T01:39:49;21.70;99.90
49829;DHT22;35723;51.194;5.112;2023-09-12T01:42:17;21.60;99.90
49829;DHT22;35723;51.194;5.112;2023-09-12T01:44:45;21.60;99.90
49829;DHT22;35723;51.194;5.112;2023-09-12T01:47:12;21.50;99.90
49829;DHT22;35723;51.194;5.112;2023-09-12T01:49:43;21.50;99.90
49829;DHT22;35723;51.194;5.112;2023-09-12T01:52:11;21.50;99.90
49829;DHT22;35723;51.194;5.112;2023-09-12T01:54:37;21.50;99.90
49829;DHT22;35723;51.194;5.112;2023-09-12T01:57:04;21.40;99.90
49829;DHT22;35723;51.194;5.112;2023-09-12T01:59:30;21.40;99.90
49829;DHT22;35723;51.194;5.112;2023-09-12T02:01:55;21.30;99.90
49829;DHT22;35723;51.194;5.112;2023-09-12T02:04:21;21.30;99.90
49829;DHT22;35723;51.194;5.112;2023-09-12T02:06:47;21.30;99.90
49829;DHT22;35723;51.194;5.112;2023-09-12T02:09:12;21.30;99.90
49829;DHT22;35723;51.194;5.112;2023-09-12T02:11:38;21.30;99.90
49829;DHT22;35723;51.194;5.112;2023-09-12T02:14:04;21.30;99.90
49829;DHT22;35723;51.194;5.112;2023-09-12T02:16:31;21.30;99.90
49829;DHT22;35723;51.194;5.112;2023-09-12T02:18:57;21.20;99.90
49829;DHT22;35723;51.194;5.112;2023-09-12T02:21:22;21.10;99.90
49829;DHT22;35723;51.194;5.112;2023-09-12T02:23:48;21.10;99.90
49829;DHT22;35723;51.194;5.112;2023-09-12T02:26:13;21.20;99.90
49829;DHT22;35723;51.194;5.112;2023-09-12T02:28:39;21.20;99.90
49829;DHT22;35723;51.194;5.112;2023-09-12T02:31:10;21.20;99.90
49829;DHT22;35723;51.194;5.112;2023-09-12T02:33:37;21.20;99.90
49829;DHT22;35723;51.194;5.112;2023-09-12T02:36:04;21.10;99.90
49829;DHT22;35723;51.194;5.112;2023-09-12T02:38:29;21.10;99.90
49829;DHT22;35723;51.194;5.112;2023-09-12T02:40:55;21.20;99.90
49829;DHT22;35723;51.194;5.112;2023-09-12T02:43:21;21.10;99.90
49829;DHT22;35723;51.194;5.112;2023-09-12T02:45:47;21.10;99.90
49829;DHT22;35723;51.194;5.112;2023-09-12T02:48:12;21.10;99.90
49829;DHT22;35723;51.194;5.112;2023-09-12T02:50:38;21.10;99.90
49829;DHT22;35723;51.194;5.112;2023-09-12T02:53:04;21.00;99.90
49829;DHT22;35723;51.194;5.112;2023-09-12T02:55:30;21.00;99.90
49829;DHT22;35723;51.194;5.112;2023-09-12T02:57:55;21.00;99.90
49829;DHT22;35723;51.194;5.112;2023-09-12T03:00:22;21.00;99.90
49829;DHT22;35723;51.194;5.112;2023-09-12T03:02:47;21.00;99.90
49829;DHT22;35723;51.194;5.112;2023-09-12T03:05:13;21.00;99.90
49829;DHT22;35723;51.194;5.112;2023-09-12T03:07:39;21.00;99.90
49829;DHT22;35723;51.194;5.112;2023-09-12T03:10:05;20.90;99.90
49829;DHT22;35723;51.194;5.112;2023-09-12T03:12:30;20.80;99.90
49829;DHT22;35723;51.194;5.112;2023-09-12T03:14:56;20.80;99.90
49829;DHT22;35723;51.194;5.112;2023-09-12T03:17:22;20.80;99.90
49829;DHT22;35723;51.194;5.112;2023-09-12T03:19:48;20.80;99.90
49829;DHT22;35723;51.194;5.112;2023-09-12T03:22:13;20.80;99.90
49829;DHT22;35723;51.194;5.112;2023-09-12T03:24:39;20.90;99.90
49829;DHT22;35723;51.194;5.112;2023-09-12T03:27:05;20.90;99.90
49829;DHT22;35723;51.194;5.112;2023-09-12T03:29:30;20.90;99.90
49829;DHT22;35723;51.194;5.112;2023-09-12T03:31:56;20.80;99.90
49829;DHT22;35723;51.194;5.112;2023-09-12T03:34:22;20.90;99.90
49829;DHT22;35723;51.194;5.112;2023-09-12T03:36:47;20.90;99.90
49829;DHT22;35723;51.194;5.112;2023-09-12T03:39:13;21.00;99.90
49829;DHT22;35723;51.194;5.112;2023-09-12T03:41:39;21.00;99.90
49829;DHT22;35723;51.194;5.112;2023-09-12T03:44:05;21.00;99.90
49829;DHT22;35723;51.194;5.112;2023-09-12T03:46:31;21.10;99.90
49829;DHT22;35723;51.194;5.112;2023-09-12T03:48:56;21.10;99.90
49829;DHT22;35723;51.194;5.112;2023-09-12T03:51:22;21.10;99.90
49829;DHT22;35723;51.194;5.112;2023-09-12T03:53:47;21.10;99.90
49829;DHT22;35723;51.194;5.112;2023-09-12T03:56:15;21.10;99.90
49829;DHT22;35723;51.194;5.112;2023-09-12T03:58:41;21.10;99.90
49829;DHT22;35723;51.194;5.112;2023-09-12T04:01:07;21.20;99.90
49829;DHT22;35723;51.194;5.112;2023-09-12T04:03:32;21.20;99.90
49829;DHT22;35723;51.194;5.112;2023-09-12T04:05:58;21.20;99.90
49829;DHT22;35723;51.194;5.112;2023-09-12T04:08:24;21.30;99.90
49829;DHT22;35723;51.194;5.112;2023-09-12T04:10:50;21.30;99.90
49829;DHT22;35723;51.194;5.112;2023-09-12T04:13:15;21.30;99.90
49829;DHT22;35723;51.194;5.112;2023-09-12T04:15:41;21.30;99.90
49829;DHT22;35723;51.194;5.112;2023-09-12T04:18:07;21.20;99.90
49829;DHT22;35723;51.194;5.112;2023-09-12T04:20:33;21.20;99.90
49829;DHT22;35723;51.194;5.112;2023-09-12T04:23:01;21.20;99.90
49829;DHT22;35723;51.194;5.112;2023-09-12T04:25:28;21.30;99.90
49829;DHT22;35723;51.194;5.112;2023-09-12T04:27:54;21.20;99.90
49829;DHT22;35723;51.194;5.112;2023-09-12T04:30:19;21.20;99.90
49829;DHT22;35723;51.194;5.112;2023-09-12T04:32:45;21.20;99.90
49829;DHT22;35723;51.194;5.112;2023-09-12T04:35:11;21.10;99.90
49829;DHT22;35723;51.194;5.112;2023-09-12T04:37:36;21.20;99.90
49829;DHT22;35723;51.194;5.112;2023-09-12T04:40:03;21.20;99.90
49829;DHT22;35723;51.194;5.112;2023-09-12T04:42:31;21.30;99.90
49829;DHT22;35723;51.194;5.112;2023-09-12T04:44:57;21.20;99.90
49829;DHT22;35723;51.194;5.112;2023-09-12T04:47:22;21.10;99.90
49829;DHT22;35723;51.194;5.112;2023-09-12T04:49:49;21.20;99.90
49829;DHT22;35723;51.194;5.112;2023-09-12T04:52:14;21.10;99.90
49829;DHT22;35723;51.194;5.112;2023-09-12T04:54:40;21.20;99.90
49829;DHT22;35723;51.194;5.112;2023-09-12T04:57:07;21.10;99.90
49829;DHT22;35723;51.194;5.112;2023-09-12T04:59:32;21.10;99.90
49829;DHT22;35723;51.194;5.112;2023-09-12T05:01:58;21.10;99.90
49829;DHT22;35723;51.194;5.112;2023-09-12T05:04:24;21.20;99.90
49829;DHT22;35723;51.194;5.112;2023-09-12T05:06:50;21.20;99.90
49829;DHT22;35723;51.194;5.112;2023-09-12T05:09:15;21.20;99.90
49829;DHT22;35723;51.194;5.112;2023-09-12T05:11:41;21.20;99.90
49829;DHT22;35723;51.194;5.112;2023-09-12T05:14:07;21.20;99.90
49829;DHT22;35723;51.194;5.112;2023-09-12T05:16:33;21.20;99.90
49829;DHT22;35723;51.194;5.112;2023-09-12T05:18:58;21.20;99.90
49829;DHT22;35723;51.194;5.112;2023-09-12T05:21:24;21.20;99.90
49829;DHT22;35723;51.194;5.112;2023-09-12T05:23:50;21.20;99.90
49829;DHT22;35723;51.194;5.112;2023-09-12T05:26:15;21.20;99.90
49829;DHT22;35723;51.194;5.112;2023-09-12T05:28:41;21.20;99.90
49829;DHT22;35723;51.194;5.112;2023-09-12T05:31:06;21.30;99.90
49829;DHT22;35723;51.194;5.112;2023-09-12T05:33:32;21.30;99.90
49829;DHT22;35723;51.194;5.112;2023-09-12T05:35:58;21.30;99.90
49829;DHT22;35723;51.194;5.112;2023-09-12T05:38:23;21.30;99.90
49829;DHT22;35723;51.194;5.112;2023-09-12T05:40:49;21.30;99.90
49829;DHT22;35723;51.194;5.112;2023-09-12T05:43:16;21.30;99.90
49829;DHT22;35723;51.194;5.112;2023-09-12T05:45:42;21.30;99.90
49829;DHT22;35723;51.194;5.112;2023-09-12T05:48:08;21.20;99.90
49829;DHT22;35723;51.194;5.112;2023-09-12T05:50:36;21.30;99.90
49829;DHT22;35723;51.194;5.112;2023-09-12T05:53:02;20.90;99.90
49829;DHT22;35723;51.194;5.112;2023-09-12T05:55:27;20.30;99.90
49829;DHT22;35723;51.194;5.112;2023-09-12T05:57:53;20.00;99.90
49829;DHT22;35723;51.194;5.112;2023-09-12T06:00:19;20.10;99.90
49829;DHT22;35723;51.194;5.112;2023-09-12T06:02:49;20.30;99.90
49829;DHT22;35723;51.194;5.112;2023-09-12T06:05:15;20.40;99.90
49829;DHT22;35723;51.194;5.112;2023-09-12T06:07:41;20.60;99.90
49829;DHT22;35723;51.194;5.112;2023-09-12T06:10:08;20.90;99.90
49829;DHT22;35723;51.194;5.112;2023-09-12T06:12:34;21.00;99.90
49829;DHT22;35723;51.194;5.112;2023-09-12T06:15:02;20.70;99.90
49829;DHT22;35723;51.194;5.112;2023-09-12T06:17:27;20.80;99.90
49829;DHT22;35723;51.194;5.112;2023-09-12T06:19:54;21.00;99.90
49829;DHT22;35723;51.194;5.112;2023-09-12T06:22:20;21.10;99.90
49829;DHT22;35723;51.194;5.112;2023-09-12T06:24:49;20.50;99.90
49829;DHT22;35723;51.194;5.112;2023-09-12T06:27:15;20.10;99.90
49829;DHT22;35723;51.194;5.112;2023-09-12T06:29:48;19.80;99.90
49829;DHT22;35723;51.194;5.112;2023-09-12T06:32:15;19.80;99.90
49829;DHT22;35723;51.194;5.112;2023-09-12T06:34:41;19.90;99.90
49829;DHT22;35723;51.194;5.112;2023-09-12T06:37:07;20.20;99.90
49829;DHT22;35723;51.194;5.112;2023-09-12T06:39:32;20.30;99.90
49829;DHT22;35723;51.194;5.112;2023-09-12T06:41:58;20.60;99.90
49829;DHT22;35723;51.194;5.112;2023-09-12T06:44:24;20.80;99.90
49829;DHT22;35723;51.194;5.112;2023-09-12T06:46:49;20.80;99.90
49829;DHT22;35723;51.194;5.112;2023-09-12T06:49:15;20.80;99.90
49829;DHT22;35723;51.194;5.112;2023-09-12T06:51:41;20.90;99.90
49829;DHT22;35723;51.194;5.112;2023-09-12T06:54:06;21.20;99.90
49829;DHT22;35723;51.194;5.112;2023-09-12T06:56:32;21.20;99.90
49829;DHT22;35723;51.194;5.112;2023-09-12T06:59:05;21.30;99.90
49829;DHT22;35723;51.194;5.112;2023-09-12T07:01:31;21.40;99.90
49829;DHT22;35723;51.194;5.112;2023-09-12T07:03:56;21.40;99.90
49829;DHT22;35723;51.194;5.112;2023-09-12T07:06:23;21.00;99.90
49829;DHT22;35723;51.194;5.112;2023-09-12T07:08:49;20.80;99.90
49829;DHT22;35723;51.194;5.112;2023-09-12T07:11:15;21.00;99.90
49829;DHT22;35723;51.194;5.112;2023-09-12T07:13:40;21.20;99.90
49829;DHT22;35723;51.194;5.112;2023-09-12T07:16:06;21.30;99.90
49829;DHT22;35723;51.194;5.112;2023-09-12T07:18:32;21.40;99.90
49829;DHT22;35723;51.194;5.112;2023-09-12T07:21:03;21.50;99.90
49829;DHT22;35723;51.194;5.112;2023-09-12T07:23:28;21.40;99.90
49829;DHT22;35723;51.194;5.112;2023-09-12T07:25:55;21.10;99.90
49829;DHT22;35723;51.194;5.112;2023-09-12T07:28:27;21.00;99.90
49829;DHT22;35723;51.194;5.112;2023-09-12T07:30:56;21.20;99.90
49829;DHT22;35723;51.194;5.112;2023-09-12T07:33:22;21.30;99.90
49829;DHT22;35723;51.194;5.112;2023-09-12T07:35:51;21.30;99.90
49829;DHT22;35723;51.194;5.112;2023-09-12T07:38:18;21.20;99.90
49829;DHT22;35723;51.194;5.112;2023-09-12T07:40:45;21.10;99.90
49829;DHT22;35723;51.194;5.112;2023-09-12T07:43:10;21.10;99.90
49829;DHT22;35723;51.194;5.112;2023-09-12T07:45:36;21.10;99.90
49829;DHT22;35723;51.194;5.112;2023-09-12T07:48:08;21.20;99.90
49829;DHT22;35723;51.194;5.112;2023-09-12T07:50:34;21.20;99.90
49829;DHT22;35723;51.194;5.112;2023-09-12T07:53:00;21.20;99.90
49829;DHT22;35723;51.194;5.112;2023-09-12T07:55:26;21.20;99.90
49829;DHT22;35723;51.194;5.112;2023-09-12T07:57:55;21.20;99.90
49829;DHT22;35723;51.194;5.112;2023-09-12T08:00:21;21.10;99.90
49829;DHT22;35723;51.194;5.112;2023-09-12T08:02:47;21.20;99.90
49829;DHT22;35723;51.194;5.112;2023-09-12T08:05:12;21.00;99.90
49829;DHT22;35723;51.194;5.112;2023-09-12T08:07:38;21.20;99.90
49829;DHT22;35723;51.194;5.112;2023-09-12T08:10:04;21.20;99.90
49829;DHT22;35723;51.194;5.112;2023-09-12T08:12:30;21.30;99.90
49829;DHT22;35723;51.194;5.112;2023-09-12T08:14:56;21.30;99.90
49829;DHT22;35723;51.194;5.112;2023-09-12T08:17:22;21.30;99.90
49829;DHT22;35723;51.194;5.112;2023-09-12T08:19:48;21.30;99.90
49829;DHT22;35723;51.194;5.112;2023-09-12T08:22:14;21.30;99.90
49829;DHT22;35723;51.194;5.112;2023-09-12T08:24:40;21.50;99.90
49829;DHT22;35723;51.194;5.112;2023-09-12T08:27:06;21.50;99.90
49829;DHT22;35723;51.194;5.112;2023-09-12T08:29:32;21.60;99.90
49829;DHT22;35723;51.194;5.112;2023-09-12T08:31:58;21.60;99.90
49829;DHT22;35723;51.194;5.112;2023-09-12T08:34:24;21.70;99.90
49829;DHT22;35723;51.194;5.112;2023-09-12T08:36:50;21.90;99.90
49829;DHT22;35723;51.194;5.112;2023-09-12T08:39:19;22.00;99.90
49829;DHT22;35723;51.194;5.112;2023-09-12T08:41:48;22.00;99.90
49829;DHT22;35723;51.194;5.112;2023-09-12T08:44:14;21.80;99.90
49829;DHT22;35723;51.194;5.112;2023-09-12T08:46:42;21.90;99.90
49829;DHT22;35723;51.194;5.112;2023-09-12T08:49:08;22.00;99.90
49829;DHT22;35723;51.194;5.112;2023-09-12T08:51:36;22.20;99.90
49829;DHT22;35723;51.194;5.112;2023-09-12T08:54:02;22.30;99.90
49829;DHT22;35723;51.194;5.112;2023-09-12T08:56:30;22.20;99.90
49829;DHT22;35723;51.194;5.112;2023-09-12T08:58:58;22.20;99.90
49829;DHT22;35723;51.194;5.112;2023-09-12T09:01:25;22.40;99.90
49829;DHT22;35723;51.194;5.112;2023-09-12T09:03:53;22.60;99.90
49829;DHT22;35723;51.194;5.112;2023-09-12T09:06:21;22.60;99.90
49829;DHT22;35723;51.194;5.112;2023-09-12T09:08:48;22.60;99.90
49829;DHT22;35723;51.194;5.112;2023-09-12T09:11:14;22.70;99.90
49829;DHT22;35723;51.194;5.112;2023-09-12T09:13:40;23.00;99.90
49829;DHT22;35723;51.194;5.112;2023-09-12T09:16:16;23.10;99.90
49829;DHT22;35723;51.194;5.112;2023-09-12T09:21:18;23.10;99.90
49829;DHT22;35723;51.194;5.112;2023-09-12T09:23:50;23.30;99.90
49829;DHT22;35723;51.194;5.112;2023-09-12T09:26:16;23.70;99.90
49829;DHT22;35723;51.194;5.112;2023-09-12T09:28:41;23.60;99.90
49829;DHT22;35723;51.194;5.112;2023-09-12T09:31:11;23.30;99.90
49829;DHT22;35723;51.194;5.112;2023-09-12T09:33:37;23.30;99.90
49829;DHT22;35723;51.194;5.112;2023-09-12T09:36:05;23.30;99.90
49829;DHT22;35723;51.194;5.112;2023-09-12T09:38:31;23.40;99.90
49829;DHT22;35723;51.194;5.112;2023-09-12T09:40:57;23.60;99.90
49829;DHT22;35723;51.194;5.112;2023-09-12T09:43:23;23.70;99.90
49829;DHT22;35723;51.194;5.112;2023-09-12T09:45:50;23.50;99.90
49829;DHT22;35723;51.194;5.112;2023-09-12T09:48:20;23.50;99.90
49829;DHT22;35723;51.194;5.112;2023-09-12T09:50:45;23.70;99.90
49829;DHT22;35723;51.194;5.112;2023-09-12T09:53:11;23.60;99.90
49829;DHT22;35723;51.194;5.112;2023-09-12T09:55:37;23.70;99.90
49829;DHT22;35723;51.194;5.112;2023-09-12T09:58:06;23.80;99.90
49829;DHT22;35723;51.194;5.112;2023-09-12T10:00:34;24.10;99.90
49829;DHT22;35723;51.194;5.112;2023-09-12T10:03:04;24.50;99.90
49829;DHT22;35723;51.194;5.112;2023-09-12T10:05:32;24.20;99.90
49829;DHT22;35723;51.194;5.112;2023-09-12T10:07:59;24.40;99.90
49829;DHT22;35723;51.194;5.112;2023-09-12T10:10:29;24.80;99.90
49829;DHT22;35723;51.194;5.112;2023-09-12T10:12:58;25.30;99.90
49829;DHT22;35723;51.194;5.112;2023-09-12T10:15:28;25.80;99.90
49829;DHT22;35723;51.194;5.112;2023-09-12T10:17:59;26.10;99.90
49829;DHT22;35723;51.194;5.112;2023-09-12T10:20:45;26.50;99.90
49829;DHT22;35723;51.194;5.112;2023-09-12T10:23:25;26.80;99.90
49829;DHT22;35723;51.194;5.112;2023-09-12T10:25:53;27.10;99.90
49829;DHT22;35723;51.194;5.112;2023-09-12T10:28:20;27.30;99.90
49829;DHT22;35723;51.194;5.112;2023-09-12T10:30:47;27.50;99.90
49829;DHT22;35723;51.194;5.112;2023-09-12T10:33:13;27.70;99.90
49829;DHT22;35723;51.194;5.112;2023-09-12T10:35:41;28.00;99.90
49829;DHT22;35723;51.194;5.112;2023-09-12T10:38:07;28.20;99.90
49829;DHT22;35723;51.194;5.112;2023-09-12T10:40:36;28.40;99.90
49829;DHT22;35723;51.194;5.112;2023-09-12T10:43:03;28.60;99.90
49829;DHT22;35723;51.194;5.112;2023-09-12T10:45:32;28.80;99.90
49829;DHT22;35723;51.194;5.112;2023-09-12T10:48:00;28.60;99.90
49829;DHT22;35723;51.194;5.112;2023-09-12T10:50:26;28.70;99.90
49829;DHT22;35723;51.194;5.112;2023-09-12T10:52:52;28.90;99.90
49829;DHT22;35723;51.194;5.112;2023-09-12T10:55:18;29.10;99.90
49829;DHT22;35723;51.194;5.112;2023-09-12T10:58:07;29.30;99.90
49829;DHT22;35723;51.194;5.112;2023-09-12T11:00:33;29.30;99.90
49829;DHT22;35723;51.194;5.112;2023-09-12T11:05:53;29.60;99.90
49829;DHT22;35723;51.194;5.112;2023-09-12T11:08:19;29.80;99.90
49829;DHT22;35723;51.194;5.112;2023-09-12T11:10:45;29.80;99.90
49829;DHT22;35723;51.194;5.112;2023-09-12T11:13:17;29.20;99.90
49829;DHT22;35723;51.194;5.112;2023-09-12T11:16:09;29.70;99.90
49829;DHT22;35723;51.194;5.112;2023-09-12T11:19:42;30.00;99.90
49829;DHT22;35723;51.194;5.112;2023-09-12T11:21:51;30.10;99.90
49829;DHT22;35723;51.194;5.112;2023-09-12T11:24:17;30.20;99.90
49829;DHT22;35723;51.194;5.112;2023-09-12T11:27:00;30.50;99.90
49829;DHT22;35723;51.194;5.112;2023-09-12T11:29:34;30.30;99.90
49829;DHT22;35723;51.194;5.112;2023-09-12T11:32:01;29.90;99.90
49829;DHT22;35723;51.194;5.112;2023-09-12T11:34:30;30.20;99.90
49829;DHT22;35723;51.194;5.112;2023-09-12T11:37:00;30.40;99.90
49829;DHT22;35723;51.194;5.112;2023-09-12T11:39:30;30.70;99.90
49829;DHT22;35723;51.194;5.112;2023-09-12T11:41:57;30.90;99.90
49829;DHT22;35723;51.194;5.112;2023-09-12T11:44:24;30.60;99.90
49829;DHT22;35723;51.194;5.112;2023-09-12T11:46:52;30.40;99.90
49829;DHT22;35723;51.194;5.112;2023-09-12T11:49:18;30.80;99.90
49829;DHT22;35723;51.194;5.112;2023-09-12T11:51:52;31.10;99.90
49829;DHT22;35723;51.194;5.112;2023-09-12T11:54:19;31.30;99.90
49829;DHT22;35723;51.194;5.112;2023-09-12T11:56:47;31.20;99.90
49829;DHT22;35723;51.194;5.112;2023-09-12T11:59:14;31.10;99.90
49829;DHT22;35723;51.194;5.112;2023-09-12T12:01:41;31.30;99.90
49829;DHT22;35723;51.194;5.112;2023-09-12T12:04:06;31.60;99.90
49829;DHT22;35723;51.194;5.112;2023-09-12T12:06:32;31.80;99.90
49829;DHT22;35723;51.194;5.112;2023-09-12T12:09:01;31.90;99.90
49829;DHT22;35723;51.194;5.112;2023-09-12T12:11:28;32.00;99.90
49829;DHT22;35723;51.194;5.112;2023-09-12T12:13:53;31.80;99.90
49829;DHT22;35723;51.194;5.112;2023-09-12T12:16:19;32.00;99.90
49829;DHT22;35723;51.194;5.112;2023-09-12T12:18:45;32.10;99.90
49829;DHT22;35723;51.194;5.112;2023-09-12T12:21:11;31.60;99.90
49829;DHT22;35723;51.194;5.112;2023-09-12T12:23:36;31.90;99.90
49829;DHT22;35723;51.194;5.112;2023-09-12T12:26:08;31.30;99.90
49829;DHT22;35723;51.194;5.112;2023-09-12T12:28:35;31.80;99.90
49829;DHT22;35723;51.194;5.112;2023-09-12T12:31:01;32.10;99.90
49829;DHT22;35723;51.194;5.112;2023-09-12T12:33:27;32.30;99.90
49829;DHT22;35723;51.194;5.112;2023-09-12T12:36:04;32.40;99.90
49829;DHT22;35723;51.194;5.112;2023-09-12T12:38:38;32.40;99.90
49829;DHT22;35723;51.194;5.112;2023-09-12T12:41:04;32.60;99.90
49829;DHT22;35723;51.194;5.112;2023-09-12T12:43:30;32.50;99.90
49829;DHT22;35723;51.194;5.112;2023-09-12T12:45:58;32.50;99.90
49829;DHT22;35723;51.194;5.112;2023-09-12T12:48:34;32.30;99.90
49829;DHT22;35723;51.194;5.112;2023-09-12T12:51:22;32.60;99.90
49829;DHT22;35723;51.194;5.112;2023-09-12T12:53:55;32.80;99.90
49829;DHT22;35723;51.194;5.112;2023-09-12T12:56:28;32.80;99.90
49829;DHT22;35723;51.194;5.112;2023-09-12T12:58:58;32.80;99.90
49829;DHT22;35723;51.194;5.112;2023-09-12T13:01:26;32.90;99.90
49829;DHT22;35723;51.194;5.112;2023-09-12T13:03:51;32.50;99.90
49829;DHT22;35723;51.194;5.112;2023-09-12T13:06:18;32.10;99.90
49829;DHT22;35723;51.194;5.112;2023-09-12T13:08:46;32.00;99.90
49829;DHT22;35723;51.194;5.112;2023-09-12T13:11:13;32.20;99.90
49829;DHT22;35723;51.194;5.112;2023-09-12T13:13:40;32.50;99.90
49829;DHT22;35723;51.194;5.112;2023-09-12T13:16:06;32.70;99.90
49829;DHT22;35723;51.194;5.112;2023-09-12T13:18:35;32.80;99.90
49829;DHT22;35723;51.194;5.112;2023-09-12T13:21:01;32.90;99.90
49829;DHT22;35723;51.194;5.112;2023-09-12T13:23:27;33.00;99.90
49829;DHT22;35723;51.194;5.112;2023-09-12T13:25:53;33.00;99.90
49829;DHT22;35723;51.194;5.112;2023-09-12T13:28:19;33.10;99.90
49829;DHT22;35723;51.194;5.112;2023-09-12T13:30:45;33.10;99.90
49829;DHT22;35723;51.194;5.112;2023-09-12T13:33:13;33.10;99.90
49829;DHT22;35723;51.194;5.112;2023-09-12T13:35:41;32.90;99.30
49829;DHT22;35723;51.194;5.112;2023-09-12T13:38:07;32.90;99.60
49829;DHT22;35723;51.194;5.112;2023-09-12T13:40:41;32.90;99.80
49829;DHT22;35723;51.194;5.112;2023-09-12T13:43:07;32.90;99.90
49829;DHT22;35723;51.194;5.112;2023-09-12T13:45:42;33.00;99.90
49829;DHT22;35723;51.194;5.112;2023-09-12T13:48:08;32.80;98.70
49829;DHT22;35723;51.194;5.112;2023-09-12T13:50:33;32.60;99.70
49829;DHT22;35723;51.194;5.112;2023-09-12T13:53:01;32.80;99.90
49829;DHT22;35723;51.194;5.112;2023-09-12T13:55:32;32.80;99.90
49829;DHT22;35723;51.194;5.112;2023-09-12T13:57:58;32.80;99.90
49829;DHT22;35723;51.194;5.112;2023-09-12T14:00:24;32.50;99.90
49829;DHT22;35723;51.194;5.112;2023-09-12T14:02:50;32.40;99.90
49829;DHT22;35723;51.194;5.112;2023-09-12T14:05:16;32.40;99.90
49829;DHT22;35723;51.194;5.112;2023-09-12T14:07:41;32.50;99.90
49829;DHT22;35723;51.194;5.112;2023-09-12T14:10:07;32.50;99.90
49829;DHT22;35723;51.194;5.112;2023-09-12T14:12:33;32.40;99.90
49829;DHT22;35723;51.194;5.112;2023-09-12T14:14:59;32.20;99.90
49829;DHT22;35723;51.194;5.112;2023-09-12T14:17:24;32.10;99.90
49829;DHT22;35723;51.194;5.112;2023-09-12T14:19:50;32.10;99.90
49829;DHT22;35723;51.194;5.112;2023-09-12T14:22:16;32.00;99.90
49829;DHT22;35723;51.194;5.112;2023-09-12T14:24:43;32.00;99.90
49829;DHT22;35723;51.194;5.112;2023-09-12T14:27:08;32.10;99.90
49829;DHT22;35723;51.194;5.112;2023-09-12T14:29:34;32.10;99.90
49829;DHT22;35723;51.194;5.112;2023-09-12T14:31:59;32.10;99.90
49829;DHT22;35723;51.194;5.112;2023-09-12T14:34:26;32.00;99.90
49829;DHT22;35723;51.194;5.112;2023-09-12T14:36:57;32.00;99.90
49829;DHT22;35723;51.194;5.112;2023-09-12T14:39:23;32.00;99.90
49829;DHT22;35723;51.194;5.112;2023-09-12T14:41:49;32.00;99.90
49829;DHT22;35723;51.194;5.112;2023-09-12T14:44:24;31.90;99.90
49829;DHT22;35723;51.194;5.112;2023-09-12T14:46:49;31.80;99.90
49829;DHT22;35723;51.194;5.112;2023-09-12T14:49:15;31.60;99.90
49829;DHT22;35723;51.194;5.112;2023-09-12T14:51:41;31.50;99.90
49829;DHT22;35723;51.194;5.112;2023-09-12T14:54:08;31.20;99.90
49829;DHT22;35723;51.194;5.112;2023-09-12T14:56:34;31.20;99.90
49829;DHT22;35723;51.194;5.112;2023-09-12T14:59:01;31.20;99.90
49829;DHT22;35723;51.194;5.112;2023-09-12T15:01:27;31.20;99.90
49829;DHT22;35723;51.194;5.112;2023-09-12T15:03:53;31.10;99.90
49829;DHT22;35723;51.194;5.112;2023-09-12T15:06:19;31.10;99.90
49829;DHT22;35723;51.194;5.112;2023-09-12T15:08:45;30.90;99.90
49829;DHT22;35723;51.194;5.112;2023-09-12T15:11:11;31.10;99.90
49829;DHT22;35723;51.194;5.112;2023-09-12T15:13:37;31.10;99.90
49829;DHT22;35723;51.194;5.112;2023-09-12T15:16:03;31.00;99.90
49829;DHT22;35723;51.194;5.112;2023-09-12T15:18:30;30.70;99.90
49829;DHT22;35723;51.194;5.112;2023-09-12T15:20:55;30.70;99.90
49829;DHT22;35723;51.194;5.112;2023-09-12T15:23:21;30.80;99.90
49829;DHT22;35723;51.194;5.112;2023-09-12T15:25:48;30.80;99.90
49829;DHT22;35723;51.194;5.112;2023-09-12T15:28:14;30.80;99.90
49829;DHT22;35723;51.194;5.112;2023-09-12T15:30:40;30.80;99.90
49829;DHT22;35723;51.194;5.112;2023-09-12T15:33:06;30.80;99.90
49829;DHT22;35723;51.194;5.112;2023-09-12T15:35:31;30.70;99.90
49829;DHT22;35723;51.194;5.112;2023-09-12T15:37:57;30.70;99.90